x

La Perouse Bank (46206) Wave Buoy

6:00pm - Wed 27th May 2015 All times are PDT. -7 hours from GMT.

  • Sig Wave height 4.9ft
  • Peak Period 13s
  • Wind
    2mph, 4mph gusts
  • Sea Temp 54°f
  • Air Temp 53°f
  • Sea Pressure 1018.2mb
  • La Perouse Bank
  • La Perouse Bank

More Historic Weather Station data

Upgrade to MSW Pro to gain access to the past 30 days of data for over 8000 Wavebouys and Weather Stations around the globe.

Join Pro

Comparision Forecast

View Surf forecast
   
Wed 05/27 6:00pm 5ft 13s 2 4 mph 1018.2mb 54f 53f
5:00pm 5ft 14s 2 4 mph 1018.5mb 54f 52f
4:00pm 5ft 12s 2 4 mph 1018.8mb 55f 53f
3:00pm 5ft 12s  -  4 mph 1018.8mb 55f 53f
2:00pm 5.5ft 12s 4 7 mph 1019mb 54f 53f
1:00pm 5.5ft 14s 7 9 mph 1019.1mb 54f 52f
12:00pm 5ft 14s 7 9 mph 1019mb 54f 52f
11:00am 5ft 14s 9 11 mph 1018.8mb 54f 52f
10:00am 5.5ft 12s 7 11 mph 1018.6mb 53f 52f
9:00am 5.5ft 12s 7 9 mph 1018.7mb 54f 52f
8:00am 6ft 12s 7 11 mph 1018.4mb 54f 51f
7:00am 6ft 11s 9 11 mph 1018.1mb 54f 51f
6:00am 6.5ft 7s 9 11 mph 1018mb 54f 51f
5:00am 6ft 7s 4 9 mph 1017.8mb 54f 51f
4:00am 6.5ft 7s 2
mph
1017.9mb 54f 52f
3:00am 6.5ft 8s 2 4 mph 1018mb 54f 52f
2:00am 7ft 7s 4 9 mph 1017.9mb 53f 52f
1:00am 6ft 12s 4 9 mph 1017.8mb 53f 52f
12:00am 6ft 12s 9 11 mph 1017.7mb 53f 53f
Tue 05/26 11:00pm 5ft 13s 9 11 mph 1017.7mb 53f 52f
10:00pm 5.5ft 12s 9 11 mph 1017.8mb 53f 52f
9:00pm 5ft 14s 11 13 mph 1017.4mb 53f 52f
8:00pm 4.5ft 10s 11 13 mph 1017.5mb 54f 53f
7:00pm 4.5ft 15s 11 13 mph 1017.6mb 55f 52f
6:00pm 4.5ft 12s 9
mph
1018.2mb 54f 52f
5:00pm 4.5ft 16s 9 11 mph 1018.4mb 54f 52f
4:00pm 4.5ft 6s 4 9 mph 1018.9mb 54f 53f
3:00pm 5ft 12s 4 7 mph 1018.8mb 54f 54f
2:00pm 4.5ft 12s 4 7 mph 1019.3mb 54f 54f
1:00pm 4.5ft 12s 4
mph
1019.4mb 54f 53f
12:00pm 4.5ft 6s 4
mph
1019.1mb 54f 53f
11:00am 4.5ft 13s 2 4 mph 1018.8mb 54f 53f
10:00am 4.5ft 13s  -  2 mph 1018.4mb 54f 53f
9:00am 4.5ft 14s 2 4 mph 1018.3mb 54f 53f
8:00am 5ft 7s 7 9 mph 1018.2mb 54f 52f
7:00am 5ft 7s 7 9 mph 1017.8mb 54f 52f
6:00am 5ft 7s 9 13 mph 1017.4mb 53f 52f
5:00am 5ft 7s 7 9 mph 1017.3mb 53f 52f
4:00am 5.5ft 7s 7 9 mph 1016.9mb 53f 52f
3:00am 5.5ft 7s 4 9 mph 1016.9mb 53f 52f
2:00am 6ft 7s 4 7 mph 1016.8mb 53f 52f
1:00am 6ft 8s 4 7 mph 1016.8mb 53f 53f
12:00am 6ft 7s 7
mph
1017mb 53f 53f
Mon 05/25 11:00pm 5.5ft 7s 4
mph
1017.1mb 53f 53f
10:00pm 5.5ft 7s 7 9 mph 1017.1mb 53f 53f
9:00pm 5ft 7s 9 11 mph 1016.7mb 53f 53f
8:00pm 4.5ft 7s 9 11 mph 1016.8mb 53f 53f
7:00pm 5ft 7s 7 11 mph 1016.7mb 54f 53f
6:00pm 5ft 6s 7 9 mph 1016.7mb 54f 54f
5:00pm 5ft 7s 2 4 mph 1016.8mb 54f 54f
4:00pm 5ft 7s 2 4 mph 1016.9mb 54f 55f
3:00pm 5.5ft 8s 7
mph
1016.9mb 54f 53f
2:00pm 5ft 7s 9
mph
1017mb 54f 52f
1:00pm 6ft 7s 9 11 mph 1017mb 54f 53f
12:00pm 6ft 8s 7 9 mph 1016.7mb 54f 52f
11:00am 6ft 8s 7 9 mph 1016.5mb 54f 52f
10:00am 5.5ft 8s 7 9 mph 1016.3mb 53f 52f
9:00am 5.5ft 7s 7 9 mph 1016.1mb 53f 52f
8:00am 5.5ft 8s 7 9 mph 1015.9mb 53f 52f
7:00am 6ft 7s 7 9 mph 1015.7mb 53f 51f
6:00am 6ft 7s 7 9 mph 1015.5mb 53f 51f
5:00am 6.5ft 7s 4 9 mph 1015.6mb 53f 52f
4:00am 7ft 8s 2 7 mph 1015.5mb 53f 51f
3:00am 7.5ft 8s 4 7 mph 1015.6mb 54f 52f
2:00am 6ft 8s 4 9 mph 1015.7mb 54f 52f
1:00am 6ft 8s 7 9 mph 1015.9mb 54f 52f
12:00am 6ft 7s 7 9 mph 1016.4mb 54f 53f
Sun 05/24 11:00pm 5.5ft 7s 9 13 mph 1016.5mb 54f 53f
10:00pm 5ft 7s 11 13 mph 1016.8mb 54f 53f
9:00pm 5ft 11s 13 16 mph 1016.7mb 54f 53f
8:00pm 4.5ft 11s 11 13 mph 1016.8mb 54f 52f
7:00pm 4.5ft 12s 11 16 mph 1017.2mb 54f 52f
6:00pm 5ft 8s 13 16 mph 1017.6mb 54f 53f
5:00pm 5ft 7s 9 16 mph 1018mb 54f 53f
4:00pm 5ft 8s 7 9 mph 1018.7mb 54f 53f
3:00pm 5ft 7s 7 9 mph 1019.3mb 54f 53f
2:00pm 5ft 8s 7 9 mph 1019.8mb 54f 53f
1:00pm 5ft 8s 4 7 mph 1020.1mb 54f 53f
12:00pm 5ft 6s 4
mph
1020.5mb 53f 53f
11:00am 5ft 8s 4
mph
1020.7mb 53f 53f
10:00am 5ft 7s 2 4 mph 1020.7mb 53f 53f
9:00am 5ft 7s 2 4 mph 1020.9mb 53f 52f
8:00am 5ft 7s 7 11 mph 1020.9mb 53f 52f
7:00am 5.5ft 11s 9 13 mph 1021.2mb 53f 52f
6:00am 5.5ft 7s 13 16 mph 1021.2mb 53f 52f
5:00am 5.5ft 7s 13 18 mph 1021.1mb 53f 51f
4:00am 6ft 6s 13 16 mph 1021.5mb 53f 51f
3:00am 6.5ft 7s 13 16 mph 1021.6mb 53f 51f